createdAt,value
2022-11-06T00:00:32.949Z,1.00
2022-11-06T00:03:01.801Z,1.00
2022-11-06T00:05:49.270Z,1.00
2022-11-06T00:08:44.720Z,1.00
2022-11-06T00:11:15.499Z,1.00
2022-11-06T00:13:43.862Z,1.00
2022-11-06T00:16:12.887Z,1.00
2022-11-06T00:18:40.947Z,1.00
2022-11-06T00:21:14.252Z,1.00
2022-11-06T00:23:42.684Z,1.00
2022-11-06T00:26:14.199Z,1.00
2022-11-06T00:28:42.756Z,1.00
2022-11-06T00:31:15.374Z,1.00
2022-11-06T00:33:43.493Z,1.00
2022-11-06T00:36:14.989Z,1.00
2022-11-06T00:38:43.984Z,1.00
2022-11-06T00:41:14.509Z,1.00
2022-11-06T00:46:12.791Z,1.00
2022-11-06T00:48:41.700Z,1.00
2022-11-06T00:51:18.940Z,1.00
2022-11-06T00:56:19.368Z,1.00
2022-11-06T00:58:48.447Z,1.00
2022-11-06T01:01:17.862Z,1.00
2022-11-06T01:03:47.573Z,1.00
2022-11-06T01:06:20.388Z,1.00
2022-11-06T01:08:49.086Z,1.00
2022-11-06T01:11:37.519Z,1.00
2022-11-06T01:14:16.992Z,1.00
2022-11-06T01:16:45.659Z,1.00
2022-11-06T01:19:15.070Z,1.00
2022-11-06T01:21:44.783Z,1.00
2022-11-06T01:24:19.902Z,1.00
2022-11-06T01:27:05.331Z,1.00
2022-11-06T01:29:36.550Z,1.00
2022-11-06T01:32:05.444Z,1.00
2022-11-06T01:34:34.255Z,1.00
2022-11-06T01:37:02.625Z,1.00
2022-11-06T01:39:29.934Z,1.00
2022-11-06T01:41:57.507Z,1.00
2022-11-06T01:44:34.133Z,1.00
2022-11-06T01:47:05.554Z,1.00
2022-11-06T01:49:39.156Z,1.00
2022-11-06T01:52:10.566Z,1.00
2022-11-06T01:54:41.809Z,1.00
2022-11-06T01:57:11.167Z,1.00
2022-11-06T01:59:45.174Z,1.00
2022-11-06T02:02:16.393Z,1.00
2022-11-06T02:04:48.345Z,1.00
2022-11-06T02:07:18.043Z,1.00
2022-11-06T02:09:45.659Z,1.00
2022-11-06T02:12:47.159Z,1.00
2022-11-06T02:15:22.591Z,1.00
2022-11-06T02:17:52.927Z,1.00
2022-11-06T02:20:37.936Z,1.00
2022-11-06T02:23:28.313Z,1.00
2022-11-06T02:26:21.155Z,1.00
2022-11-06T02:28:56.123Z,1.00
2022-11-06T02:31:32.134Z,1.00
2022-11-06T02:34:08.556Z,1.00
2022-11-06T02:36:55.437Z,1.00
2022-11-06T02:39:27.534Z,1.00
2022-11-06T02:41:57.801Z,1.00
2022-11-06T02:44:31.495Z,1.00
2022-11-06T02:47:05.067Z,1.00
2022-11-06T02:49:43.050Z,1.00
2022-11-06T02:52:23.352Z,1.00
2022-11-06T02:54:56.785Z,1.00
2022-11-06T02:57:27.121Z,1.00
2022-11-06T03:00:14.016Z,1.00
2022-11-06T03:03:02.389Z,1.00
2022-11-06T03:05:47.289Z,1.00
2022-11-06T03:08:35.633Z,1.00
2022-11-06T03:11:03.321Z,1.00
2022-11-06T03:13:44.850Z,1.00
2022-11-06T03:16:30.926Z,1.00
2022-11-06T03:19:06.833Z,1.00
2022-11-06T03:21:56.242Z,1.00
2022-11-06T03:24:33.879Z,1.00
2022-11-06T03:27:10.741Z,1.00
2022-11-06T03:29:49.724Z,1.00
2022-11-06T03:32:30.184Z,1.00
2022-11-06T03:35:09.439Z,1.00
2022-11-06T03:37:42.724Z,1.00
2022-11-06T03:40:15.636Z,1.00
2022-11-06T03:42:45.084Z,1.00
2022-11-06T03:45:20.326Z,1.00
2022-11-06T03:50:34.412Z,1.00
2022-11-06T03:53:34.254Z,1.00
2022-11-06T03:56:18.548Z,1.00
2022-11-06T03:58:49.679Z,1.00
2022-11-06T04:01:23.886Z,1.00
2022-11-06T04:04:16.433Z,1.00
2022-11-06T04:06:57.525Z,1.00
2022-11-06T04:09:47.848Z,1.00
2022-11-06T04:12:38.801Z,1.00
2022-11-06T04:15:09.712Z,1.00
2022-11-06T04:17:38.803Z,1.00
2022-11-06T04:20:11.120Z,1.00
2022-11-06T04:23:12.557Z,1.00
2022-11-06T04:26:26.382Z,1.00
2022-11-06T04:29:05.395Z,1.00
2022-11-06T04:31:43.098Z,1.00
2022-11-06T04:34:38.338Z,1.00
2022-11-06T04:37:17.517Z,1.00
2022-11-06T04:39:56.683Z,1.00
2022-11-06T04:42:43.452Z,1.00
2022-11-06T04:45:28.770Z,1.00
2022-11-06T04:50:27.348Z,1.00
2022-11-06T04:52:55.969Z,1.00
2022-11-06T04:55:23.632Z,1.00
2022-11-06T04:57:51.504Z,1.00
2022-11-06T05:00:19.155Z,1.00
2022-11-06T05:02:46.753Z,1.00
2022-11-06T05:05:14.030Z,1.00
2022-11-06T05:07:41.584Z,1.00
2022-11-06T05:10:10.019Z,1.00
2022-11-06T05:12:37.648Z,1.00
2022-11-06T05:15:05.281Z,1.00
2022-11-06T05:17:36.311Z,1.00
2022-11-06T05:20:05.012Z,1.00
2022-11-06T05:22:51.140Z,1.00
2022-11-06T05:25:18.324Z,1.00
2022-11-06T05:30:13.667Z,1.00
2022-11-06T05:37:37.056Z,1.00
2022-11-06T05:40:05.362Z,1.00
2022-11-06T05:42:32.881Z,1.00
2022-11-06T05:45:00.253Z,1.00
2022-11-06T05:47:27.790Z,1.00
2022-11-06T05:52:23.152Z,1.00
2022-11-06T05:54:50.485Z,1.00
2022-11-06T05:57:18.225Z,1.00
2022-11-06T05:59:45.715Z,1.00
2022-11-06T06:02:13.319Z,1.00
2022-11-06T06:04:40.645Z,1.00
2022-11-06T06:12:03.939Z,1.00
2022-11-06T06:14:31.150Z,1.00
2022-11-06T06:16:58.696Z,1.00
2022-11-06T06:19:26.079Z,1.00
2022-11-06T06:21:53.629Z,1.00
2022-11-06T06:24:21.114Z,1.00
2022-11-06T06:26:48.817Z,1.00
2022-11-06T06:29:16.656Z,1.00
2022-11-06T06:31:44.261Z,1.00
2022-11-06T06:34:11.731Z,1.00
2022-11-06T06:36:39.379Z,1.00
2022-11-06T06:39:06.694Z,1.00
2022-11-06T06:41:34.439Z,1.00
2022-11-06T06:44:01.710Z,1.00
2022-11-06T06:46:29.396Z,1.00
2022-11-06T06:48:56.636Z,1.00
2022-11-06T06:51:24.431Z,1.00
2022-11-06T06:53:52.225Z,1.00
2022-11-06T06:56:20.691Z,1.00
2022-11-06T06:58:48.680Z,1.00
2022-11-06T07:01:16.581Z,1.00
2022-11-06T07:03:44.015Z,1.00
2022-11-06T07:06:11.990Z,1.00
2022-11-06T07:08:39.431Z,1.00
2022-11-06T07:11:09.207Z,1.00
2022-11-06T07:13:36.805Z,1.00
2022-11-06T07:16:06.540Z,1.00
2022-11-06T07:18:35.082Z,1.00
2022-11-06T07:21:06.102Z,1.00
2022-11-06T07:23:35.231Z,1.00
2022-11-06T07:26:04.246Z,1.00
2022-11-06T07:31:01.329Z,1.00
2022-11-06T07:33:29.548Z,1.00
2022-11-06T07:36:02.211Z,1.00
2022-11-06T07:38:29.449Z,1.00
2022-11-06T07:41:00.898Z,1.00
2022-11-06T07:43:28.176Z,1.00
2022-11-06T07:46:00.948Z,1.00
2022-11-06T07:48:29.120Z,1.00
2022-11-06T07:50:57.055Z,1.00
2022-11-06T07:55:54.485Z,1.00
2022-11-06T07:58:22.862Z,1.00
2022-11-06T08:00:56.080Z,1.00
2022-11-06T08:03:25.073Z,1.00
2022-11-06T08:05:52.733Z,1.00
2022-11-06T08:08:20.077Z,1.00
2022-11-06T08:10:47.909Z,1.00
2022-11-06T08:13:18.006Z,1.00
2022-11-06T08:15:45.782Z,1.00
2022-11-06T08:18:13.599Z,1.00
2022-11-06T08:20:41.777Z,1.00
2022-11-06T08:23:11.672Z,1.00
2022-11-06T08:25:40.060Z,1.00
2022-11-06T08:28:07.633Z,1.00
2022-11-06T08:30:35.204Z,1.00
2022-11-06T08:33:05.610Z,1.00
2022-11-06T08:35:35.322Z,1.00
2022-11-06T08:38:03.359Z,1.00
2022-11-06T08:40:31.935Z,1.00
2022-11-06T08:43:04.572Z,1.00
2022-11-06T08:45:32.917Z,1.00
2022-11-06T08:48:04.641Z,1.00
2022-11-06T08:53:04.473Z,1.00
2022-11-06T09:03:06.402Z,1.00
2022-11-06T09:05:34.565Z,15.70
2022-11-06T09:08:02.076Z,20.00
2022-11-06T09:10:29.729Z,12.10
2022-11-06T09:12:59.438Z,1.20
2022-11-06T09:15:27.626Z,1.00
2022-11-06T09:17:55.207Z,1.00
2022-11-06T09:20:25.029Z,1.00
2022-11-06T09:22:53.297Z,1.00
2022-11-06T09:25:22.075Z,1.00
2022-11-06T09:27:58.952Z,1.00
2022-11-06T09:30:29.939Z,1.00
2022-11-06T09:33:00.594Z,1.00
2022-11-06T09:35:31.944Z,1.00
2022-11-06T09:38:08.092Z,1.00
2022-11-06T09:40:51.583Z,1.00
2022-11-06T09:44:04.789Z,1.00
2022-11-06T09:46:52.193Z,99.90
2022-11-06T09:49:31.799Z,55.60
2022-11-06T09:52:23.727Z,1.00
2022-11-06T09:54:58.669Z,1.00
2022-11-06T09:57:47.799Z,99.90
2022-11-06T10:00:17.158Z,99.90
2022-11-06T10:02:48.333Z,99.90
2022-11-06T10:05:35.428Z,99.90
2022-11-06T10:08:26.064Z,99.90
2022-11-06T10:11:06.372Z,99.90
2022-11-06T10:14:00.959Z,99.90
2022-11-06T10:19:33.541Z,99.90
2022-11-06T10:22:17.694Z,99.90
2022-11-06T10:24:58.571Z,99.90
2022-11-06T10:27:28.665Z,99.90
2022-11-06T10:30:32.693Z,99.90
2022-11-06T10:33:31.812Z,94.30
2022-11-06T10:36:22.723Z,99.90
2022-11-06T10:38:52.640Z,99.90
2022-11-06T10:41:26.292Z,99.90
2022-11-06T10:43:58.230Z,99.70
2022-11-06T10:46:36.716Z,72.30
2022-11-06T10:49:21.409Z,66.10
2022-11-06T10:51:57.819Z,60.00
2022-11-06T10:55:16.136Z,51.50
2022-11-06T10:57:57.698Z,41.40
2022-11-06T11:00:25.824Z,30.00
2022-11-06T11:02:57.297Z,26.90
2022-11-06T11:05:26.963Z,26.20
2022-11-06T11:07:55.395Z,21.80
2022-11-06T11:10:36.769Z,18.90
2022-11-06T11:13:08.711Z,14.30
2022-11-06T11:15:48.047Z,11.30
2022-11-06T11:18:22.421Z,2.50
2022-11-06T11:20:52.447Z,1.00
2022-11-06T11:23:25.910Z,1.00
2022-11-06T11:25:55.808Z,2.00
2022-11-06T11:28:31.565Z,1.00
2022-11-06T11:31:09.654Z,1.00
2022-11-06T11:33:39.247Z,1.00
2022-11-06T11:36:09.032Z,1.00
2022-11-06T11:38:39.113Z,1.00
2022-11-06T11:41:24.145Z,1.00
2022-11-06T11:44:13.471Z,1.00
2022-11-06T11:46:54.429Z,1.00
2022-11-06T11:49:33.955Z,1.00
2022-11-06T11:52:04.276Z,1.00
2022-11-06T11:54:36.055Z,1.00
2022-11-06T11:57:07.658Z,1.00
2022-11-06T11:59:49.609Z,1.00
2022-11-06T12:02:28.145Z,1.00
2022-11-06T12:05:18.561Z,1.00
2022-11-06T12:07:57.503Z,1.00
2022-11-06T12:10:38.085Z,1.00
2022-11-06T12:13:24.989Z,1.00
2022-11-06T12:16:15.248Z,1.00
2022-11-06T12:18:57.622Z,1.00
2022-11-06T12:21:40.205Z,1.00
2022-11-06T12:24:24.015Z,1.00
2022-11-06T12:26:56.231Z,1.00
2022-11-06T12:29:35.952Z,1.00
2022-11-06T12:32:15.611Z,1.00
2022-11-06T12:34:57.299Z,1.00
2022-11-06T12:37:41.167Z,1.00
2022-11-06T12:40:25.862Z,1.00
2022-11-06T12:43:21.456Z,1.00
2022-11-06T12:46:22.239Z,1.00
2022-11-06T12:49:14.336Z,1.00
2022-11-06T12:51:44.510Z,1.00
2022-11-06T12:54:30.844Z,1.00
2022-11-06T12:57:04.507Z,1.00
2022-11-06T12:59:56.990Z,1.00
2022-11-06T13:02:55.981Z,1.00
2022-11-06T13:05:29.857Z,1.00
2022-11-06T13:08:05.881Z,1.00
2022-11-06T13:10:45.502Z,1.00
2022-11-06T13:13:23.256Z,1.00
2022-11-06T13:16:13.107Z,1.00
2022-11-06T13:18:53.193Z,1.00
2022-11-06T13:21:27.195Z,1.00
2022-11-06T13:24:08.038Z,1.00
2022-11-06T13:26:48.042Z,1.00
2022-11-06T13:29:17.856Z,1.00
2022-11-06T13:31:49.350Z,1.00
2022-11-06T13:34:24.114Z,1.00
2022-11-06T13:36:53.421Z,1.00
2022-11-06T13:39:33.490Z,1.00
2022-11-06T13:42:02.771Z,1.00
2022-11-06T13:44:31.200Z,1.00
2022-11-06T13:47:09.154Z,1.00
2022-11-06T13:50:05.024Z,1.00
2022-11-06T13:53:07.867Z,1.00
2022-11-06T13:55:54.203Z,1.00
2022-11-06T13:58:41.010Z,1.00
2022-11-06T14:01:27.386Z,1.00
2022-11-06T14:04:19.927Z,1.00
2022-11-06T14:06:52.031Z,1.00
2022-11-06T14:09:24.350Z,1.00
2022-11-06T14:11:58.803Z,1.00
2022-11-06T14:14:29.468Z,1.00
2022-11-06T14:17:12.484Z,4.10
2022-11-06T14:19:47.605Z,28.10
2022-11-06T14:22:30.689Z,10.40
2022-11-06T14:25:02.043Z,11.70
2022-11-06T14:27:30.127Z,16.10
2022-11-06T14:30:17.917Z,21.10
2022-11-06T14:32:48.375Z,25.40
2022-11-06T14:35:31.273Z,37.40
2022-11-06T14:38:11.979Z,57.20
2022-11-06T14:40:40.251Z,53.90
2022-11-06T14:43:27.292Z,60.50
2022-11-06T14:46:00.845Z,77.60
2022-11-06T14:48:50.487Z,73.90
2022-11-06T14:51:26.980Z,80.90
2022-11-06T14:53:59.432Z,96.70
2022-11-06T14:56:33.790Z,99.90
2022-11-06T14:59:09.292Z,99.90
2022-11-06T15:01:37.862Z,99.90
2022-11-06T15:04:14.981Z,99.90
2022-11-06T15:06:46.302Z,99.90
2022-11-06T15:09:39.557Z,99.90
2022-11-06T15:12:08.571Z,99.90
2022-11-06T15:14:35.820Z,99.90
2022-11-06T15:17:05.094Z,99.90
2022-11-06T15:19:48.609Z,99.90
2022-11-06T15:22:28.213Z,99.90
2022-11-06T15:25:11.303Z,99.90
2022-11-06T15:27:46.561Z,99.90
2022-11-06T15:30:19.560Z,99.90
2022-11-06T15:32:49.165Z,99.90
2022-11-06T15:35:22.127Z,99.90
2022-11-06T15:37:53.955Z,99.90
2022-11-06T15:40:36.945Z,99.90
2022-11-06T15:43:30.134Z,99.90
2022-11-06T15:46:15.283Z,99.90
2022-11-06T15:48:44.221Z,99.90
2022-11-06T15:51:26.108Z,99.90
2022-11-06T15:53:54.436Z,1.00
2022-11-06T15:56:29.886Z,1.00
2022-11-06T15:59:14.824Z,1.00
2022-11-06T16:01:47.116Z,1.00
2022-11-06T16:04:22.029Z,1.00
2022-11-06T16:06:51.727Z,1.00
2022-11-06T16:09:25.537Z,1.00
2022-11-06T16:11:54.111Z,1.00
2022-11-06T16:14:22.674Z,1.00
2022-11-06T16:16:53.061Z,1.00
2022-11-06T16:19:32.369Z,99.90
2022-11-06T16:22:11.505Z,1.00
2022-11-06T16:25:04.019Z,1.00
2022-11-06T16:27:36.640Z,1.00
2022-11-06T16:30:06.635Z,99.90
2022-11-06T16:32:41.045Z,1.00
2022-11-06T16:35:32.068Z,99.90
2022-11-06T16:38:49.466Z,99.90
2022-11-06T16:41:37.340Z,99.90
2022-11-06T16:44:37.458Z,99.90
2022-11-06T16:47:10.638Z,99.90
2022-11-06T16:49:42.253Z,1.00
2022-11-06T16:52:32.715Z,1.00
2022-11-06T16:55:04.514Z,1.00
2022-11-06T16:57:57.405Z,99.90
2022-11-06T17:00:29.554Z,1.00
2022-11-06T17:03:18.886Z,1.00
2022-11-06T17:05:57.325Z,99.90
2022-11-06T17:08:30.835Z,99.90
2022-11-06T17:11:14.625Z,99.90
2022-11-06T17:13:44.451Z,99.90
2022-11-06T17:16:16.064Z,99.90
2022-11-06T17:18:44.080Z,1.00
2022-11-06T17:21:15.328Z,1.00
2022-11-06T17:23:43.414Z,1.00
2022-11-06T17:26:17.150Z,1.00
2022-11-06T17:28:44.707Z,1.00
2022-11-06T17:31:15.079Z,1.00
2022-11-06T17:33:43.811Z,1.00
2022-11-06T17:36:26.846Z,1.00
2022-11-06T17:38:56.098Z,1.00
2022-11-06T17:41:31.354Z,1.00
2022-11-06T17:44:03.889Z,1.00
2022-11-06T17:46:38.007Z,1.00
2022-11-06T17:49:06.178Z,1.00
2022-11-06T17:51:53.282Z,1.00
2022-11-06T17:54:23.177Z,1.00
2022-11-06T17:56:51.756Z,1.00
2022-11-06T17:59:19.638Z,1.00
2022-11-06T18:01:48.186Z,1.00
2022-11-06T18:04:16.333Z,1.00
2022-11-06T18:06:49.338Z,1.00
2022-11-06T18:09:17.924Z,1.00
2022-11-06T18:11:46.300Z,1.00
2022-11-06T18:14:15.570Z,1.00
2022-11-06T18:16:44.252Z,1.00
2022-11-06T18:19:16.182Z,1.00
2022-11-06T18:21:44.297Z,1.00
2022-11-06T18:24:11.776Z,1.00
2022-11-06T18:26:40.489Z,1.00
2022-11-06T18:29:11.703Z,1.00
2022-11-06T18:31:42.192Z,1.00
2022-11-06T18:34:20.288Z,1.00
2022-11-06T18:36:51.000Z,1.00
2022-11-06T18:39:19.871Z,1.00
2022-11-06T18:41:50.092Z,1.00
2022-11-06T18:44:20.166Z,1.00
2022-11-06T18:46:49.893Z,1.00
2022-11-06T18:49:21.365Z,1.00
2022-11-06T18:51:52.157Z,1.00
2022-11-06T18:54:21.135Z,1.00
2022-11-06T18:56:49.860Z,1.00
2022-11-06T18:59:21.131Z,1.00
2022-11-06T19:01:49.523Z,1.00
2022-11-06T19:04:18.272Z,1.00
2022-11-06T19:06:47.064Z,1.00
2022-11-06T19:09:14.996Z,1.00
2022-11-06T19:11:42.975Z,1.00
2022-11-06T19:14:11.011Z,1.00
2022-11-06T19:16:39.534Z,1.00
2022-11-06T19:19:07.810Z,1.00
2022-11-06T19:21:36.213Z,1.00
2022-11-06T19:24:05.713Z,1.00
2022-11-06T19:26:36.235Z,1.00
2022-11-06T19:29:08.418Z,1.00
2022-11-06T19:31:37.580Z,1.00
2022-11-06T19:34:06.817Z,1.00
2022-11-06T19:36:35.255Z,1.00
2022-11-06T19:39:03.870Z,1.00
2022-11-06T19:41:31.801Z,1.00
2022-11-06T19:43:59.727Z,1.00
2022-11-06T19:46:33.948Z,1.00
2022-11-06T19:49:06.262Z,1.00
2022-11-06T19:51:41.270Z,1.00
2022-11-06T19:54:10.353Z,1.00
2022-11-06T19:57:29.583Z,1.00
2022-11-06T19:59:26.507Z,1.00
2022-11-06T20:01:54.509Z,1.00
2022-11-06T20:04:22.926Z,1.00
2022-11-06T20:06:52.955Z,1.00
2022-11-06T20:09:21.749Z,1.00
2022-11-06T20:11:52.576Z,1.00
2022-11-06T20:14:22.106Z,1.00
2022-11-06T20:16:51.424Z,1.00
2022-11-06T20:19:19.111Z,1.00
2022-11-06T20:21:46.775Z,1.00
2022-11-06T20:24:14.425Z,1.00
2022-11-06T20:26:42.253Z,1.00
2022-11-06T20:29:09.848Z,1.00
2022-11-06T20:31:38.262Z,1.00
2022-11-06T20:34:05.832Z,1.00
2022-11-06T20:36:35.773Z,1.00
2022-11-06T20:39:04.258Z,1.00
2022-11-06T20:41:32.863Z,1.00
2022-11-06T20:44:00.818Z,1.00
2022-11-06T20:46:29.446Z,1.00
2022-11-06T20:48:58.486Z,1.00
2022-11-06T20:51:27.916Z,1.00
2022-11-06T20:53:55.736Z,1.00
2022-11-06T20:56:27.280Z,1.00
2022-11-06T20:58:55.899Z,1.00
2022-11-06T21:01:29.565Z,1.00
2022-11-06T21:03:58.560Z,1.00
2022-11-06T21:06:27.792Z,1.00
2022-11-06T21:08:56.078Z,1.00
2022-11-06T21:11:27.219Z,1.00
2022-11-06T21:13:54.964Z,1.00
2022-11-06T21:16:32.709Z,1.00
2022-11-06T21:19:01.774Z,1.00
2022-11-06T21:21:33.397Z,1.00
2022-11-06T21:24:02.541Z,1.00
2022-11-06T21:26:34.595Z,1.00
2022-11-06T21:29:06.188Z,1.00
2022-11-06T21:31:34.923Z,1.00
2022-11-06T21:34:04.121Z,1.00
2022-11-06T21:36:38.178Z,1.00
2022-11-06T21:39:19.057Z,1.00
2022-11-06T21:41:49.799Z,1.00
2022-11-06T21:44:19.041Z,1.00
2022-11-06T21:46:47.053Z,1.00
2022-11-06T21:49:15.015Z,1.00
2022-11-06T21:51:42.991Z,1.00
2022-11-06T21:54:31.190Z,1.00
2022-11-06T21:56:59.131Z,1.00
2022-11-06T21:59:28.601Z,1.00
2022-11-06T22:01:56.656Z,1.00
2022-11-06T22:04:24.513Z,1.00
2022-11-06T22:06:52.800Z,1.00
2022-11-06T22:09:24.790Z,1.00
2022-11-06T22:11:53.123Z,1.00
2022-11-06T22:14:20.656Z,1.00
2022-11-06T22:16:48.497Z,1.00
2022-11-06T22:19:17.784Z,1.00
2022-11-06T22:21:45.947Z,1.00
2022-11-06T22:24:14.558Z,1.00
2022-11-06T22:26:42.324Z,1.00
2022-11-06T22:29:13.549Z,1.00
2022-11-06T22:31:41.495Z,1.00
2022-11-06T22:34:12.360Z,1.00
2022-11-06T22:36:41.313Z,1.00
2022-11-06T22:39:10.265Z,1.00
2022-11-06T22:41:38.894Z,1.00
2022-11-06T22:44:07.065Z,1.00
2022-11-06T22:46:35.397Z,1.00
2022-11-06T22:49:04.382Z,1.00
2022-11-06T22:51:33.567Z,1.00
2022-11-06T22:54:01.895Z,1.00
2022-11-06T22:56:31.220Z,1.00
2022-11-06T22:59:01.830Z,1.00
2022-11-06T23:01:31.180Z,1.00
2022-11-06T23:04:03.813Z,1.00
2022-11-06T23:06:32.491Z,1.00
2022-11-06T23:09:00.221Z,1.00
2022-11-06T23:11:29.133Z,1.00
2022-11-06T23:13:57.733Z,1.00
2022-11-06T23:16:49.645Z,1.00
2022-11-06T23:19:19.618Z,1.00
2022-11-06T23:21:47.001Z,1.00
2022-11-06T23:24:15.453Z,1.00
2022-11-06T23:26:44.343Z,1.00
2022-11-06T23:29:12.222Z,1.00
2022-11-06T23:31:41.382Z,1.00
2022-11-06T23:34:09.162Z,1.00
2022-11-06T23:36:36.488Z,1.00
2022-11-06T23:39:05.413Z,1.00
2022-11-06T23:41:46.215Z,1.00
2022-11-06T23:44:33.758Z,1.00
2022-11-06T23:47:01.695Z,1.00
2022-11-06T23:49:29.712Z,1.00
2022-11-06T23:51:57.717Z,1.00
2022-11-06T23:54:25.829Z,1.00
2022-11-06T23:56:53.131Z,1.00
2022-11-06T23:59:21.383Z,1.00
